createdAt,value
2023-02-27T00:01:34.956Z,1.90
2023-02-27T00:04:01.795Z,2.15
2023-02-27T00:06:28.663Z,2.08
2023-02-27T00:08:55.122Z,2.13
2023-02-27T00:11:21.874Z,1.80
2023-02-27T00:13:48.252Z,2.08
2023-02-27T00:16:14.724Z,2.15
2023-02-27T00:18:41.164Z,1.70
2023-02-27T00:21:07.517Z,2.17
2023-02-27T00:23:34.020Z,1.88
2023-02-27T00:26:01.011Z,2.00
2023-02-27T00:28:28.307Z,2.20
2023-02-27T00:30:54.769Z,1.92
2023-02-27T00:33:21.279Z,2.30
2023-02-27T00:36:01.554Z,1.80
2023-02-27T00:38:28.133Z,2.10
2023-02-27T00:40:54.524Z,1.90
2023-02-27T00:43:21.058Z,2.10
2023-02-27T00:45:48.392Z,1.95
2023-02-27T00:48:15.225Z,2.15
2023-02-27T00:50:41.955Z,2.03
2023-02-27T00:53:08.453Z,1.80
2023-02-27T00:55:34.869Z,1.90
2023-02-27T00:58:01.262Z,1.90
2023-02-27T01:00:27.674Z,1.85
2023-02-27T01:02:54.317Z,2.08
2023-02-27T01:05:21.181Z,1.70
2023-02-27T01:07:47.557Z,1.50
2023-02-27T01:10:13.923Z,1.80
2023-02-27T01:12:40.822Z,1.83
2023-02-27T01:15:08.679Z,1.63
2023-02-27T01:17:35.078Z,1.90
2023-02-27T01:20:01.441Z,1.70
2023-02-27T01:22:27.801Z,1.80
2023-02-27T01:24:54.158Z,1.98
2023-02-27T01:27:20.510Z,1.70
2023-02-27T01:29:46.912Z,1.80
2023-02-27T01:32:13.347Z,2.03
2023-02-27T01:34:39.891Z,1.70
2023-02-27T01:37:06.253Z,2.00
2023-02-27T01:39:33.122Z,1.80
2023-02-27T01:42:00.929Z,1.75
2023-02-27T01:44:29.986Z,1.67
2023-02-27T01:46:56.405Z,1.60
2023-02-27T01:49:29.045Z,1.63
2023-02-27T01:52:02.978Z,1.70
2023-02-27T01:54:32.332Z,1.77
2023-02-27T01:56:59.003Z,1.65
2023-02-27T01:59:25.634Z,1.48
2023-02-27T02:01:52.487Z,1.50
2023-02-27T02:04:35.171Z,1.60
2023-02-27T02:07:15.226Z,1.42
2023-02-27T02:09:45.102Z,1.40
2023-02-27T02:12:14.723Z,1.70
2023-02-27T02:14:41.101Z,1.75
2023-02-27T02:17:12.443Z,1.42
2023-02-27T02:20:00.433Z,1.60
2023-02-27T02:22:55.916Z,1.38
2023-02-27T02:25:59.778Z,1.58
2023-02-27T02:29:08.990Z,1.50
2023-02-27T02:32:00.961Z,1.48
2023-02-27T02:34:46.090Z,1.40
2023-02-27T02:37:18.311Z,1.50
2023-02-27T02:40:05.906Z,1.40
2023-02-27T02:42:38.451Z,1.45
2023-02-27T02:45:17.425Z,1.50
2023-02-27T02:48:03.590Z,1.70
2023-02-27T02:50:48.245Z,1.48
2023-02-27T02:53:38.256Z,1.42
2023-02-27T02:56:12.924Z,1.60
2023-02-27T02:58:49.414Z,1.60
2023-02-27T03:01:25.840Z,1.30
2023-02-27T03:04:03.559Z,1.50
2023-02-27T03:06:35.003Z,1.27
2023-02-27T03:09:15.722Z,1.40
2023-02-27T03:11:45.475Z,1.52
2023-02-27T03:14:29.056Z,1.27
2023-02-27T03:16:58.389Z,1.38
2023-02-27T03:19:40.990Z,1.48
2023-02-27T03:22:10.794Z,1.30
2023-02-27T03:24:45.131Z,1.48
2023-02-27T03:27:11.790Z,1.30
2023-02-27T03:29:44.718Z,1.38
2023-02-27T03:32:17.871Z,1.30
2023-02-27T03:34:45.729Z,1.60
2023-02-27T03:37:44.516Z,1.38
2023-02-27T03:40:23.776Z,1.17
2023-02-27T03:43:01.022Z,1.30
2023-02-27T03:45:37.490Z,1.25
2023-02-27T03:48:06.798Z,1.30
2023-02-27T03:50:37.197Z,1.30
2023-02-27T03:53:10.561Z,1.27
2023-02-27T03:55:40.892Z,1.27
2023-02-27T03:58:07.304Z,1.42
2023-02-27T04:00:34.618Z,1.35
2023-02-27T04:03:02.316Z,1.20
2023-02-27T04:05:29.064Z,1.60
2023-02-27T04:08:20.810Z,1.30
2023-02-27T04:11:31.297Z,1.30
2023-02-27T04:14:28.539Z,1.40
2023-02-27T04:17:15.706Z,1.30
2023-02-27T04:20:27.932Z,1.33
2023-02-27T04:23:03.708Z,1.25
2023-02-27T04:26:04.089Z,1.17
2023-02-27T04:29:11.053Z,1.13
2023-02-27T04:32:06.872Z,0.98
2023-02-27T04:34:42.328Z,1.20
2023-02-27T04:37:15.306Z,1.23
2023-02-27T04:39:53.343Z,1.23
2023-02-27T04:42:42.252Z,1.15
2023-02-27T04:45:14.230Z,1.20
2023-02-27T04:47:49.089Z,1.17
2023-02-27T04:50:21.777Z,1.30
2023-02-27T04:52:54.981Z,1.20
2023-02-27T04:55:28.592Z,1.20
2023-02-27T04:58:00.357Z,1.20
2023-02-27T05:00:29.508Z,1.15
2023-02-27T05:03:13.318Z,1.27
2023-02-27T05:05:43.591Z,1.27
2023-02-27T05:08:19.043Z,1.20
2023-02-27T05:11:09.130Z,1.23
2023-02-27T05:13:43.626Z,1.10
2023-02-27T05:16:32.867Z,1.42
2023-02-27T05:19:01.043Z,1.25
2023-02-27T05:21:53.810Z,1.17
2023-02-27T05:24:46.510Z,1.33
2023-02-27T05:27:24.751Z,1.40
2023-02-27T05:29:52.284Z,0.90
2023-02-27T05:32:41.946Z,1.20
2023-02-27T05:35:20.132Z,1.20
2023-02-27T05:37:53.384Z,1.08
2023-02-27T05:40:25.488Z,1.10
2023-02-27T05:43:13.030Z,1.27
2023-02-27T05:45:43.487Z,1.27
2023-02-27T05:48:17.242Z,1.20
2023-02-27T05:50:47.906Z,1.30
2023-02-27T05:53:17.878Z,1.27
2023-02-27T05:55:49.343Z,1.10
2023-02-27T05:58:26.065Z,1.20
2023-02-27T06:01:01.262Z,1.10
2023-02-27T06:03:28.512Z,1.35
2023-02-27T06:05:56.968Z,1.20
2023-02-27T06:08:24.039Z,1.10
2023-02-27T06:10:50.576Z,1.17
2023-02-27T06:13:17.206Z,1.15
2023-02-27T06:15:44.361Z,1.13
2023-02-27T06:18:15.366Z,1.00
2023-02-27T06:20:42.994Z,1.30
2023-02-27T06:23:09.925Z,1.23
2023-02-27T06:25:36.933Z,1.30
2023-02-27T06:28:03.878Z,1.25
2023-02-27T06:30:30.781Z,1.27
2023-02-27T06:32:58.138Z,1.20
2023-02-27T06:35:24.534Z,1.30
2023-02-27T06:37:50.901Z,1.20
2023-02-27T06:40:19.016Z,1.20
2023-02-27T06:42:45.858Z,1.25
2023-02-27T06:45:13.431Z,1.30
2023-02-27T06:47:41.148Z,1.23
2023-02-27T06:50:11.118Z,1.30
2023-02-27T06:52:38.987Z,1.52
2023-02-27T06:55:07.005Z,1.10
2023-02-27T06:57:33.613Z,1.15
2023-02-27T06:59:59.971Z,1.20
2023-02-27T07:02:26.339Z,1.20
2023-02-27T07:04:53.088Z,1.40
2023-02-27T07:07:34.420Z,1.20
2023-02-27T07:10:03.543Z,1.33
2023-02-27T07:12:29.926Z,1.40
2023-02-27T07:14:56.291Z,1.42
2023-02-27T07:17:22.689Z,1.38
2023-02-27T07:21:00.565Z,5.43
2023-02-27T07:23:26.983Z,4.90
2023-02-27T07:25:56.153Z,6.70
2023-02-27T07:28:22.588Z,7.60
2023-02-27T07:30:49.001Z,6.57
2023-02-27T07:33:15.438Z,6.33
2023-02-27T07:35:41.808Z,5.40
2023-02-27T07:38:08.218Z,5.30
2023-02-27T07:40:34.627Z,4.67
2023-02-27T07:43:01.015Z,5.00
2023-02-27T07:45:27.404Z,4.70
2023-02-27T07:47:53.805Z,5.17
2023-02-27T07:50:20.250Z,5.40
2023-02-27T07:52:46.679Z,5.23
2023-02-27T07:55:20.163Z,5.67
2023-02-27T07:57:46.634Z,5.53
2023-02-27T08:00:13.360Z,5.10
2023-02-27T08:02:39.865Z,4.87
2023-02-27T08:05:07.184Z,5.37
2023-02-27T08:07:33.594Z,4.50
2023-02-27T08:09:59.957Z,4.77
2023-02-27T08:12:26.313Z,4.40
2023-02-27T08:14:52.694Z,4.73
2023-02-27T08:17:19.146Z,5.63
2023-02-27T08:19:45.503Z,5.50
2023-02-27T08:22:12.334Z,5.27
2023-02-27T08:24:40.388Z,4.50
2023-02-27T08:27:07.574Z,5.00
2023-02-27T08:29:34.366Z,4.87
2023-02-27T08:32:02.390Z,5.93
2023-02-27T08:34:30.135Z,5.20
2023-02-27T08:36:56.517Z,5.63
2023-02-27T08:39:25.722Z,5.50
2023-02-27T08:41:54.967Z,5.60
2023-02-27T08:44:21.394Z,5.40
2023-02-27T08:46:47.826Z,5.90
2023-02-27T08:49:14.643Z,5.43
2023-02-27T08:51:41.029Z,6.33
2023-02-27T08:54:07.403Z,6.10
2023-02-27T08:56:34.804Z,5.87
2023-02-27T08:59:01.976Z,6.00
2023-02-27T09:01:34.157Z,6.10
2023-02-27T09:04:02.369Z,5.70
2023-02-27T09:06:29.350Z,5.10
2023-02-27T09:08:57.371Z,5.73
2023-02-27T09:11:24.609Z,5.87
2023-02-27T09:13:51.592Z,5.73
2023-02-27T09:16:19.580Z,5.63
2023-02-27T09:18:46.142Z,6.70
2023-02-27T09:21:12.920Z,5.30
2023-02-27T09:23:39.470Z,6.10
2023-02-27T09:26:06.545Z,6.17
2023-02-27T09:28:33.021Z,6.73
2023-02-27T09:31:05.818Z,6.60
2023-02-27T09:33:33.654Z,6.33
2023-02-27T09:36:00.051Z,6.63
2023-02-27T09:38:26.837Z,6.53
2023-02-27T09:40:56.460Z,6.40
2023-02-27T09:43:43.359Z,6.40
2023-02-27T09:46:17.865Z,6.20
2023-02-27T09:48:52.221Z,6.23
2023-02-27T09:51:19.723Z,6.60
2023-02-27T09:53:49.384Z,5.90
2023-02-27T09:56:28.138Z,6.00
2023-02-27T09:59:07.949Z,6.43
2023-02-27T10:01:45.077Z,6.50
2023-02-27T10:04:34.518Z,5.80
2023-02-27T10:07:25.915Z,5.70
2023-02-27T10:10:20.233Z,6.13
2023-02-27T10:12:59.760Z,6.63
2023-02-27T10:15:31.065Z,6.20
2023-02-27T10:18:26.936Z,5.53
2023-02-27T10:21:10.767Z,5.20
2023-02-27T10:23:55.188Z,5.20
2023-02-27T10:26:27.985Z,4.70
2023-02-27T10:28:54.432Z,5.03
2023-02-27T10:31:25.835Z,4.30
2023-02-27T10:33:52.905Z,4.60
2023-02-27T10:36:32.634Z,4.30
2023-02-27T10:39:04.527Z,4.60
2023-02-27T10:41:31.166Z,3.90
2023-02-27T10:44:00.063Z,3.93
2023-02-27T10:46:30.521Z,3.93
2023-02-27T10:49:02.576Z,4.17
2023-02-27T10:51:33.376Z,4.07
2023-02-27T10:54:25.076Z,3.57
2023-02-27T10:56:54.744Z,4.37
2023-02-27T10:59:26.979Z,3.70
2023-02-27T11:01:56.527Z,2.40
2023-02-27T11:04:36.715Z,2.47
2023-02-27T11:07:06.688Z,2.80
2023-02-27T11:09:34.050Z,2.50
2023-02-27T11:12:30.057Z,2.70
2023-02-27T11:14:59.376Z,2.30
2023-02-27T11:17:34.125Z,2.30
2023-02-27T11:20:06.152Z,2.30
2023-02-27T11:22:33.236Z,1.90
2023-02-27T11:25:23.099Z,2.03
2023-02-27T11:27:52.063Z,2.03
2023-02-27T11:30:29.600Z,2.30
2023-02-27T11:32:58.979Z,2.40
2023-02-27T11:35:31.422Z,2.60
2023-02-27T11:38:02.069Z,2.20
2023-02-27T11:40:36.622Z,2.40
2023-02-27T11:43:15.949Z,2.17
2023-02-27T11:46:20.351Z,2.17
2023-02-27T11:48:37.467Z,2.33
2023-02-27T11:51:36.106Z,2.30
2023-02-27T11:54:07.826Z,1.90
2023-02-27T11:56:39.148Z,2.30
2023-02-27T11:59:11.460Z,2.10
2023-02-27T12:01:46.728Z,2.00
2023-02-27T12:04:43.634Z,2.10
2023-02-27T12:07:21.959Z,2.03
2023-02-27T12:09:51.527Z,1.90
2023-02-27T12:12:44.277Z,1.93
2023-02-27T12:15:35.663Z,2.30
2023-02-27T12:18:15.278Z,2.53
2023-02-27T12:20:59.199Z,1.60
2023-02-27T12:23:46.843Z,1.50
2023-02-27T12:26:23.287Z,1.80
2023-02-27T12:29:03.504Z,1.87
2023-02-27T12:31:44.309Z,1.87
2023-02-27T12:34:16.954Z,1.73
2023-02-27T12:36:43.637Z,1.60
2023-02-27T12:39:21.203Z,1.63
2023-02-27T12:42:06.309Z,1.50
2023-02-27T12:44:58.414Z,1.70
2023-02-27T12:47:55.824Z,1.60
2023-02-27T12:50:24.843Z,1.00
2023-02-27T12:53:26.723Z,1.20
2023-02-27T12:56:01.189Z,1.50
2023-02-27T12:58:37.994Z,1.03
2023-02-27T13:01:22.782Z,1.20
2023-02-27T13:03:59.425Z,1.40
2023-02-27T13:06:44.741Z,1.30
2023-02-27T13:09:40.621Z,1.20
2023-02-27T13:12:25.168Z,1.20
2023-02-27T13:15:13.448Z,1.33
2023-02-27T13:18:04.429Z,1.70
2023-02-27T13:20:44.408Z,1.23
2023-02-27T13:23:35.436Z,1.40
2023-02-27T13:26:11.893Z,1.50
2023-02-27T13:28:39.261Z,2.27
2023-02-27T13:31:29.766Z,1.70
2023-02-27T13:34:15.996Z,1.70
2023-02-27T13:36:50.723Z,1.53
2023-02-27T13:39:39.615Z,1.60
2023-02-27T13:42:27.873Z,1.90
2023-02-27T13:44:58.938Z,2.23
2023-02-27T13:47:31.460Z,1.60
2023-02-27T13:50:02.952Z,1.20
2023-02-27T13:52:32.313Z,1.33
2023-02-27T13:55:06.230Z,1.50
2023-02-27T13:57:38.547Z,1.40
2023-02-27T14:00:16.646Z,1.50
2023-02-27T14:02:59.265Z,1.40
2023-02-27T14:05:31.221Z,1.60
2023-02-27T14:08:04.042Z,1.60
2023-02-27T14:10:31.529Z,1.83
2023-02-27T14:12:58.973Z,1.70
2023-02-27T14:15:25.301Z,1.80
2023-02-27T14:18:09.648Z,1.50
2023-02-27T14:20:38.909Z,1.53
2023-02-27T14:23:17.497Z,1.50
2023-02-27T14:26:15.650Z,1.60
2023-02-27T14:28:55.724Z,1.40
2023-02-27T14:31:34.910Z,1.47
2023-02-27T14:34:05.921Z,1.30
2023-02-27T14:36:40.755Z,1.70
2023-02-27T14:39:07.275Z,1.70
2023-02-27T14:41:49.657Z,1.60
2023-02-27T14:44:24.189Z,1.40
2023-02-27T14:46:53.304Z,1.63
2023-02-27T14:49:31.095Z,1.60
2023-02-27T14:52:09.907Z,1.70
2023-02-27T14:54:36.329Z,1.57
2023-02-27T14:57:05.796Z,1.53
2023-02-27T14:59:48.848Z,1.50
2023-02-27T15:02:25.442Z,1.87
2023-02-27T15:05:00.544Z,1.67
2023-02-27T15:07:30.319Z,1.30
2023-02-27T15:09:59.714Z,1.30
2023-02-27T15:12:27.968Z,1.40
2023-02-27T15:15:00.836Z,1.30
2023-02-27T15:17:36.636Z,1.40
2023-02-27T15:20:21.348Z,1.40
2023-02-27T15:22:47.714Z,1.40
2023-02-27T15:25:35.408Z,1.40
2023-02-27T15:28:04.827Z,1.50
2023-02-27T15:30:32.346Z,1.60
2023-02-27T15:32:59.421Z,1.60
2023-02-27T15:35:34.960Z,1.93
2023-02-27T15:38:02.520Z,1.73
2023-02-27T15:40:31.252Z,1.80
2023-02-27T15:42:59.208Z,1.60
2023-02-27T15:45:30.437Z,1.90
2023-02-27T15:47:57.128Z,1.63
2023-02-27T15:50:31.446Z,1.73
2023-02-27T15:53:06.868Z,1.93
2023-02-27T15:55:37.443Z,1.73
2023-02-27T15:58:15.701Z,1.80
2023-02-27T16:00:42.165Z,1.60
2023-02-27T16:03:09.624Z,1.63
2023-02-27T16:05:38.815Z,1.73
2023-02-27T16:08:06.781Z,2.00
2023-02-27T16:10:44.480Z,2.07
2023-02-27T16:13:36.863Z,2.50
2023-02-27T16:16:23.577Z,1.80
2023-02-27T16:18:52.714Z,1.83
2023-02-27T16:21:21.549Z,1.50
2023-02-27T16:23:48.170Z,1.90
2023-02-27T16:26:36.421Z,1.90
2023-02-27T16:29:04.804Z,1.83
2023-02-27T16:31:37.298Z,2.20
2023-02-27T16:34:12.490Z,2.53
2023-02-27T16:36:40.933Z,1.87
2023-02-27T16:39:12.805Z,1.70
2023-02-27T16:41:39.189Z,1.93
2023-02-27T16:44:05.588Z,2.10
2023-02-27T16:46:32.112Z,2.30
2023-02-27T16:49:17.876Z,2.80
2023-02-27T16:51:46.609Z,5.30
2023-02-27T16:54:13.938Z,4.80
2023-02-27T16:56:40.913Z,2.90
2023-02-27T16:59:26.822Z,2.87
2023-02-27T17:01:53.274Z,2.10
2023-02-27T17:04:25.699Z,2.40
2023-02-27T17:06:53.371Z,2.57
2023-02-27T17:09:19.742Z,1.90
2023-02-27T17:11:46.213Z,2.27
2023-02-27T17:14:12.968Z,1.97
2023-02-27T17:16:39.386Z,2.07
2023-02-27T17:19:05.821Z,2.00
2023-02-27T17:21:32.780Z,1.87
2023-02-27T17:23:59.171Z,2.17
2023-02-27T17:26:27.034Z,2.37
2023-02-27T17:28:55.224Z,2.23
2023-02-27T17:31:23.092Z,2.10
2023-02-27T17:33:50.916Z,2.00
2023-02-27T17:36:17.913Z,2.20
2023-02-27T17:38:44.279Z,2.00
2023-02-27T17:41:12.509Z,2.33
2023-02-27T17:43:39.910Z,2.30
2023-02-27T17:46:08.248Z,3.90
2023-02-27T17:48:35.573Z,2.80
2023-02-27T17:51:11.397Z,2.30
2023-02-27T17:53:38.471Z,3.03
2023-02-27T17:56:06.138Z,2.50
2023-02-27T17:58:34.014Z,2.30
2023-02-27T18:01:20.146Z,2.80
2023-02-27T18:03:47.634Z,2.20
2023-02-27T18:06:14.683Z,2.70
2023-02-27T18:08:41.251Z,4.10
2023-02-27T18:11:12.767Z,3.83
2023-02-27T18:13:40.434Z,2.77
2023-02-27T18:16:07.223Z,2.60
2023-02-27T18:18:39.271Z,2.90
2023-02-27T18:21:07.897Z,3.20
2023-02-27T18:23:34.318Z,2.90
2023-02-27T18:26:00.995Z,5.83
2023-02-27T18:28:28.334Z,4.60
2023-02-27T18:30:54.782Z,3.77
2023-02-27T18:33:22.963Z,3.63
2023-02-27T18:35:49.655Z,3.27
2023-02-27T18:38:16.075Z,3.20
2023-02-27T18:40:42.812Z,3.70
2023-02-27T18:43:10.314Z,2.90
2023-02-27T18:45:37.923Z,3.23
2023-02-27T18:48:04.428Z,3.30
2023-02-27T18:50:30.976Z,3.87
2023-02-27T18:52:59.106Z,4.47
2023-02-27T18:55:25.900Z,3.80
2023-02-27T18:57:52.301Z,4.00
2023-02-27T19:00:21.638Z,4.30
2023-02-27T19:02:48.137Z,3.70
2023-02-27T19:05:14.782Z,3.70
2023-02-27T19:07:42.287Z,3.20
2023-02-27T19:10:09.448Z,3.90
2023-02-27T19:12:35.903Z,4.13
2023-02-27T19:15:03.381Z,3.33
2023-02-27T19:17:29.796Z,4.10
2023-02-27T19:19:56.164Z,3.80
2023-02-27T19:22:22.540Z,3.83
2023-02-27T19:24:49.972Z,4.40
2023-02-27T19:27:17.159Z,4.23
2023-02-27T19:29:43.600Z,4.57
2023-02-27T19:32:10.078Z,4.50
2023-02-27T19:34:36.466Z,4.07
2023-02-27T19:37:02.989Z,4.47
2023-02-27T19:39:29.397Z,4.30
2023-02-27T19:41:56.505Z,4.20
2023-02-27T19:44:22.997Z,4.40
2023-02-27T19:46:52.087Z,3.57
2023-02-27T19:49:19.747Z,3.47
2023-02-27T19:51:46.163Z,3.60
2023-02-27T19:54:14.105Z,3.73
2023-02-27T19:56:40.478Z,4.23
2023-02-27T19:59:06.860Z,4.00
2023-02-27T20:01:36.183Z,4.20
2023-02-27T20:04:03.263Z,4.23
2023-02-27T20:06:31.974Z,3.93
2023-02-27T20:08:59.435Z,4.10
2023-02-27T20:11:30.792Z,4.90
2023-02-27T20:13:57.410Z,4.37
2023-02-27T20:16:26.407Z,4.63
2023-02-27T20:18:53.802Z,4.90
2023-02-27T20:21:24.494Z,4.57
2023-02-27T20:23:53.814Z,4.83
2023-02-27T20:26:24.389Z,4.93
2023-02-27T20:28:52.546Z,5.20
2023-02-27T20:31:21.196Z,4.90
2023-02-27T20:33:48.577Z,5.30
2023-02-27T20:36:16.034Z,5.43
2023-02-27T20:38:42.855Z,5.83
2023-02-27T20:41:17.989Z,5.30
2023-02-27T20:43:45.274Z,5.30
2023-02-27T20:46:15.212Z,5.10
2023-02-27T20:48:42.216Z,5.50
2023-02-27T20:51:11.746Z,5.00
2023-02-27T20:53:40.353Z,5.80
2023-02-27T20:56:08.373Z,5.10
2023-02-27T20:58:35.109Z,5.63
2023-02-27T21:01:04.888Z,4.57
2023-02-27T21:03:38.474Z,4.93
2023-02-27T21:06:07.322Z,5.03
2023-02-27T21:08:38.215Z,4.83
2023-02-27T21:11:13.715Z,4.83
2023-02-27T21:13:40.381Z,5.23
2023-02-27T21:16:09.411Z,4.83
2023-02-27T21:18:37.449Z,5.27
2023-02-27T21:21:13.184Z,4.83
2023-02-27T21:23:42.173Z,5.10
2023-02-27T21:26:14.032Z,5.10
2023-02-27T21:28:46.731Z,4.57
2023-02-27T21:31:17.631Z,5.17
2023-02-27T21:33:44.228Z,5.10
2023-02-27T21:36:11.487Z,4.93
2023-02-27T21:38:39.193Z,5.13
2023-02-27T21:41:12.767Z,4.97
2023-02-27T21:43:42.069Z,4.70
2023-02-27T21:46:11.884Z,4.47
2023-02-27T21:48:39.328Z,4.57
2023-02-27T21:51:06.923Z,4.87
2023-02-27T21:53:33.454Z,4.20
2023-02-27T21:56:08.130Z,4.80
2023-02-27T21:58:34.609Z,4.67
2023-02-27T22:01:01.105Z,4.63
2023-02-27T22:03:34.260Z,5.00
2023-02-27T22:06:01.912Z,4.67
2023-02-27T22:08:28.789Z,4.60
2023-02-27T22:10:59.544Z,4.10
2023-02-27T22:13:26.574Z,4.20
2023-02-27T22:15:53.648Z,4.20
2023-02-27T22:18:20.801Z,3.97
2023-02-27T22:20:47.265Z,4.07
2023-02-27T22:23:13.838Z,4.60
2023-02-27T22:25:41.124Z,4.40
2023-02-27T22:28:07.528Z,4.00
2023-02-27T22:30:34.231Z,4.50
2023-02-27T22:33:00.620Z,4.23
2023-02-27T22:35:27.021Z,4.30
2023-02-27T22:37:53.461Z,4.43
2023-02-27T22:40:20.330Z,4.63
2023-02-27T22:42:48.029Z,4.93
2023-02-27T22:45:15.034Z,4.80
2023-02-27T22:47:41.514Z,4.70
2023-02-27T22:50:08.289Z,4.63
2023-02-27T22:52:36.424Z,5.07
2023-02-27T22:55:03.485Z,4.53
2023-02-27T22:57:29.866Z,4.47
2023-02-27T22:59:56.260Z,4.50
2023-02-27T23:02:22.628Z,4.60
2023-02-27T23:04:48.995Z,4.87
2023-02-27T23:07:15.367Z,5.40
2023-02-27T23:09:41.968Z,5.33
2023-02-27T23:12:08.478Z,5.27
2023-02-27T23:14:34.906Z,6.00
2023-02-27T23:17:01.351Z,5.70
2023-02-27T23:19:27.720Z,5.50
2023-02-27T23:21:54.086Z,5.70
2023-02-27T23:24:20.672Z,5.10
2023-02-27T23:26:48.898Z,5.83
2023-02-27T23:29:15.631Z,5.87
2023-02-27T23:31:42.479Z,4.83
2023-02-27T23:34:09.660Z,5.50
2023-02-27T23:36:37.872Z,5.53
2023-02-27T23:39:05.999Z,5.83
2023-02-27T23:41:33.006Z,5.33
2023-02-27T23:44:01.445Z,5.63
2023-02-27T23:46:30.309Z,6.10
2023-02-27T23:48:58.394Z,5.50
2023-02-27T23:51:25.122Z,4.93
2023-02-27T23:53:51.490Z,5.17
2023-02-27T23:56:23.071Z,5.10
2023-02-27T23:58:55.040Z,5.43
